sensor_id;sensor_type;location;lat;lon;timestamp;P1;durP1;ratioP1;P2;durP2;ratioP2
15061;SDS011;7630;50.306;8.566;2023-07-13T00:01:24;2.73;;;2.13;;
15061;SDS011;7630;50.306;8.566;2023-07-13T00:05:26;2.87;;;1.77;;
15061;SDS011;7630;50.306;8.566;2023-07-13T00:09:28;3.43;;;1.87;;
15061;SDS011;7630;50.306;8.566;2023-07-13T00:13:29;4.60;;;2.33;;
15061;SDS011;7630;50.306;8.566;2023-07-13T00:17:31;4.37;;;1.67;;
15061;SDS011;7630;50.306;8.566;2023-07-13T00:21:33;2.83;;;1.37;;
15061;SDS011;7630;50.306;8.566;2023-07-13T00:25:34;6.17;;;2.20;;
15061;SDS011;7630;50.306;8.566;2023-07-13T00:29:36;3.73;;;1.67;;
15061;SDS011;7630;50.306;8.566;2023-07-13T00:33:37;3.47;;;1.90;;
15061;SDS011;7630;50.306;8.566;2023-07-13T00:37:38;2.90;;;1.77;;
15061;SDS011;7630;50.306;8.566;2023-07-13T00:41:40;3.00;;;1.70;;
15061;SDS011;7630;50.306;8.566;2023-07-13T00:49:49;5.03;;;2.53;;
15061;SDS011;7630;50.306;8.566;2023-07-13T00:53:51;4.47;;;2.37;;
15061;SDS011;7630;50.306;8.566;2023-07-13T00:57:55;3.23;;;2.57;;
15061;SDS011;7630;50.306;8.566;2023-07-13T01:01:56;3.67;;;1.80;;
15061;SDS011;7630;50.306;8.566;2023-07-13T01:05:57;4.77;;;2.40;;
15061;SDS011;7630;50.306;8.566;2023-07-13T01:09:59;4.57;;;2.30;;
15061;SDS011;7630;50.306;8.566;2023-07-13T01:14:00;3.90;;;1.83;;
15061;SDS011;7630;50.306;8.566;2023-07-13T01:18:03;2.80;;;1.83;;
15061;SDS011;7630;50.306;8.566;2023-07-13T01:22:10;4.00;;;2.20;;
15061;SDS011;7630;50.306;8.566;2023-07-13T01:26:16;2.23;;;1.67;;
15061;SDS011;7630;50.306;8.566;2023-07-13T01:30:17;3.37;;;2.50;;
15061;SDS011;7630;50.306;8.566;2023-07-13T01:34:19;11.60;;;2.33;;
15061;SDS011;7630;50.306;8.566;2023-07-13T01:38:21;2.57;;;1.97;;
15061;SDS011;7630;50.306;8.566;2023-07-13T01:42:23;7.70;;;1.40;;
15061;SDS011;7630;50.306;8.566;2023-07-13T01:46:24;4.23;;;1.70;;
15061;SDS011;7630;50.306;8.566;2023-07-13T01:50:26;3.80;;;1.73;;
15061;SDS011;7630;50.306;8.566;2023-07-13T01:54:28;2.07;;;1.30;;
15061;SDS011;7630;50.306;8.566;2023-07-13T01:58:29;3.93;;;2.10;;
15061;SDS011;7630;50.306;8.566;2023-07-13T02:02:30;6.27;;;2.00;;
15061;SDS011;7630;50.306;8.566;2023-07-13T02:06:32;3.33;;;1.80;;
15061;SDS011;7630;50.306;8.566;2023-07-13T02:10:33;4.53;;;2.13;;
15061;SDS011;7630;50.306;8.566;2023-07-13T02:14:35;2.23;;;1.53;;
15061;SDS011;7630;50.306;8.566;2023-07-13T02:18:36;2.93;;;1.80;;
15061;SDS011;7630;50.306;8.566;2023-07-13T02:22:38;4.00;;;1.83;;
15061;SDS011;7630;50.306;8.566;2023-07-13T02:26:39;3.37;;;1.67;;
15061;SDS011;7630;50.306;8.566;2023-07-13T02:30:40;5.20;;;1.73;;
15061;SDS011;7630;50.306;8.566;2023-07-13T02:34:41;3.13;;;1.50;;
15061;SDS011;7630;50.306;8.566;2023-07-13T02:38:43;3.27;;;1.70;;
15061;SDS011;7630;50.306;8.566;2023-07-13T02:42:44;3.20;;;1.53;;
15061;SDS011;7630;50.306;8.566;2023-07-13T02:46:45;3.20;;;2.70;;
15061;SDS011;7630;50.306;8.566;2023-07-13T02:50:46;2.40;;;1.73;;
15061;SDS011;7630;50.306;8.566;2023-07-13T02:54:47;3.27;;;2.10;;
15061;SDS011;7630;50.306;8.566;2023-07-13T02:58:49;2.53;;;2.00;;
15061;SDS011;7630;50.306;8.566;2023-07-13T03:02:50;5.67;;;1.93;;
15061;SDS011;7630;50.306;8.566;2023-07-13T03:06:51;3.83;;;1.70;;
15061;SDS011;7630;50.306;8.566;2023-07-13T03:11:02;5.87;;;1.90;;
15061;SDS011;7630;50.306;8.566;2023-07-13T03:15:02;3.83;;;1.90;;
15061;SDS011;7630;50.306;8.566;2023-07-13T03:19:04;4.77;;;2.87;;
15061;SDS011;7630;50.306;8.566;2023-07-13T03:23:06;6.00;;;2.70;;
15061;SDS011;7630;50.306;8.566;2023-07-13T03:27:07;6.40;;;2.20;;
15061;SDS011;7630;50.306;8.566;2023-07-13T03:31:19;3.23;;;2.13;;
15061;SDS011;7630;50.306;8.566;2023-07-13T03:35:19;11.70;;;2.33;;
15061;SDS011;7630;50.306;8.566;2023-07-13T03:39:20;3.90;;;1.70;;
15061;SDS011;7630;50.306;8.566;2023-07-13T03:43:22;4.13;;;2.40;;
15061;SDS011;7630;50.306;8.566;2023-07-13T03:47:23;5.53;;;2.10;;
15061;SDS011;7630;50.306;8.566;2023-07-13T03:51:24;5.43;;;2.53;;
15061;SDS011;7630;50.306;8.566;2023-07-13T03:55:25;5.53;;;2.63;;
15061;SDS011;7630;50.306;8.566;2023-07-13T03:59:27;8.27;;;2.77;;
15061;SDS011;7630;50.306;8.566;2023-07-13T04:03:28;3.60;;;1.93;;
15061;SDS011;7630;50.306;8.566;2023-07-13T04:07:32;4.10;;;1.83;;
15061;SDS011;7630;50.306;8.566;2023-07-13T04:11:34;3.10;;;1.97;;
15061;SDS011;7630;50.306;8.566;2023-07-13T04:15:38;5.03;;;2.03;;
15061;SDS011;7630;50.306;8.566;2023-07-13T04:19:39;3.40;;;2.20;;
15061;SDS011;7630;50.306;8.566;2023-07-13T04:23:40;4.93;;;1.93;;
15061;SDS011;7630;50.306;8.566;2023-07-13T04:27:41;3.80;;;1.70;;
15061;SDS011;7630;50.306;8.566;2023-07-13T04:31:43;7.70;;;1.93;;
15061;SDS011;7630;50.306;8.566;2023-07-13T04:35:44;3.40;;;1.30;;
15061;SDS011;7630;50.306;8.566;2023-07-13T04:39:47;3.37;;;1.97;;
15061;SDS011;7630;50.306;8.566;2023-07-13T04:43:48;2.60;;;2.10;;
15061;SDS011;7630;50.306;8.566;2023-07-13T04:47:49;6.37;;;1.80;;
15061;SDS011;7630;50.306;8.566;2023-07-13T04:51:50;3.87;;;1.87;;
15061;SDS011;7630;50.306;8.566;2023-07-13T04:55:52;4.37;;;1.90;;
15061;SDS011;7630;50.306;8.566;2023-07-13T04:59:53;4.33;;;2.23;;
15061;SDS011;7630;50.306;8.566;2023-07-13T05:03:54;3.47;;;2.00;;
15061;SDS011;7630;50.306;8.566;2023-07-13T05:07:58;5.50;;;2.37;;
15061;SDS011;7630;50.306;8.566;2023-07-13T05:11:59;3.90;;;1.90;;
15061;SDS011;7630;50.306;8.566;2023-07-13T05:16:02;4.17;;;1.67;;
15061;SDS011;7630;50.306;8.566;2023-07-13T05:20:05;2.87;;;1.33;;
15061;SDS011;7630;50.306;8.566;2023-07-13T05:24:06;3.03;;;1.70;;
15061;SDS011;7630;50.306;8.566;2023-07-13T05:28:09;3.73;;;2.17;;
15061;SDS011;7630;50.306;8.566;2023-07-13T05:32:10;4.30;;;1.70;;
15061;SDS011;7630;50.306;8.566;2023-07-13T05:36:11;7.27;;;2.40;;
15061;SDS011;7630;50.306;8.566;2023-07-13T05:40:13;3.60;;;1.90;;
15061;SDS011;7630;50.306;8.566;2023-07-13T05:44:14;4.40;;;1.40;;
15061;SDS011;7630;50.306;8.566;2023-07-13T05:48:15;5.07;;;1.53;;
15061;SDS011;7630;50.306;8.566;2023-07-13T05:52:16;4.30;;;1.53;;
15061;SDS011;7630;50.306;8.566;2023-07-13T05:56:17;2.50;;;1.63;;
15061;SDS011;7630;50.306;8.566;2023-07-13T06:00:18;2.50;;;1.20;;
15061;SDS011;7630;50.306;8.566;2023-07-13T06:04:20;1.33;;;1.00;;
15061;SDS011;7630;50.306;8.566;2023-07-13T06:08:21;3.17;;;1.10;;
15061;SDS011;7630;50.306;8.566;2023-07-13T06:12:22;3.47;;;1.10;;
15061;SDS011;7630;50.306;8.566;2023-07-13T06:16:24;8.60;;;1.23;;
15061;SDS011;7630;50.306;8.566;2023-07-13T06:20:25;1.77;;;0.77;;
15061;SDS011;7630;50.306;8.566;2023-07-13T06:24:26;2.87;;;0.90;;
15061;SDS011;7630;50.306;8.566;2023-07-13T06:28:28;2.03;;;1.63;;
15061;SDS011;7630;50.306;8.566;2023-07-13T06:32:29;2.50;;;0.90;;
15061;SDS011;7630;50.306;8.566;2023-07-13T06:36:30;2.00;;;0.80;;
15061;SDS011;7630;50.306;8.566;2023-07-13T06:40:31;2.53;;;1.13;;
15061;SDS011;7630;50.306;8.566;2023-07-13T06:44:32;1.27;;;0.67;;
15061;SDS011;7630;50.306;8.566;2023-07-13T06:48:33;0.93;;;0.70;;
15061;SDS011;7630;50.306;8.566;2023-07-13T06:52:35;3.33;;;0.70;;
15061;SDS011;7630;50.306;8.566;2023-07-13T06:56:36;1.83;;;1.03;;
15061;SDS011;7630;50.306;8.566;2023-07-13T07:00:37;1.97;;;0.83;;
15061;SDS011;7630;50.306;8.566;2023-07-13T07:04:40;2.20;;;1.77;;
15061;SDS011;7630;50.306;8.566;2023-07-13T07:08:42;1.23;;;1.13;;
15061;SDS011;7630;50.306;8.566;2023-07-13T07:12:43;2.30;;;0.93;;
15061;SDS011;7630;50.306;8.566;2023-07-13T07:16:44;3.03;;;1.00;;
15061;SDS011;7630;50.306;8.566;2023-07-13T07:20:46;1.77;;;1.13;;
15061;SDS011;7630;50.306;8.566;2023-07-13T07:24:47;0.77;;;0.67;;
15061;SDS011;7630;50.306;8.566;2023-07-13T07:28:48;1.97;;;1.00;;
15061;SDS011;7630;50.306;8.566;2023-07-13T07:32:51;1.53;;;1.43;;
15061;SDS011;7630;50.306;8.566;2023-07-13T07:36:54;1.67;;;0.83;;
15061;SDS011;7630;50.306;8.566;2023-07-13T07:41:02;2.43;;;1.03;;
15061;SDS011;7630;50.306;8.566;2023-07-13T07:45:06;1.90;;;0.87;;
15061;SDS011;7630;50.306;8.566;2023-07-13T07:49:08;2.00;;;0.80;;
15061;SDS011;7630;50.306;8.566;2023-07-13T07:53:10;1.07;;;0.80;;
15061;SDS011;7630;50.306;8.566;2023-07-13T07:57:15;2.73;;;1.13;;
15061;SDS011;7630;50.306;8.566;2023-07-13T08:01:18;2.53;;;1.00;;
15061;SDS011;7630;50.306;8.566;2023-07-13T08:05:21;1.10;;;1.00;;
15061;SDS011;7630;50.306;8.566;2023-07-13T08:09:24;0.97;;;0.57;;
15061;SDS011;7630;50.306;8.566;2023-07-13T08:13:25;1.60;;;0.80;;
15061;SDS011;7630;50.306;8.566;2023-07-13T08:17:26;3.47;;;0.80;;
15061;SDS011;7630;50.306;8.566;2023-07-13T08:21:28;3.23;;;0.80;;
15061;SDS011;7630;50.306;8.566;2023-07-13T08:25:29;1.70;;;1.20;;
15061;SDS011;7630;50.306;8.566;2023-07-13T08:29:30;1.20;;;1.10;;
15061;SDS011;7630;50.306;8.566;2023-07-13T08:33:35;2.10;;;1.00;;
15061;SDS011;7630;50.306;8.566;2023-07-13T08:37:36;4.17;;;0.83;;
15061;SDS011;7630;50.306;8.566;2023-07-13T08:41:38;1.87;;;0.90;;
15061;SDS011;7630;50.306;8.566;2023-07-13T08:49:50;4.27;;;1.27;;
15061;SDS011;7630;50.306;8.566;2023-07-13T08:53:54;1.10;;;0.80;;
15061;SDS011;7630;50.306;8.566;2023-07-13T08:58:11;4.23;;;0.97;;
15061;SDS011;7630;50.306;8.566;2023-07-13T09:02:27;1.33;;;0.70;;
15061;SDS011;7630;50.306;8.566;2023-07-13T09:06:35;0.80;;;0.80;;
15061;SDS011;7630;50.306;8.566;2023-07-13T09:10:49;3.33;;;0.87;;
15061;SDS011;7630;50.306;8.566;2023-07-13T09:14:56;4.70;;;1.20;;
15061;SDS011;7630;50.306;8.566;2023-07-13T09:19:00;2.30;;;0.70;;
15061;SDS011;7630;50.306;8.566;2023-07-13T09:23:05;3.60;;;0.70;;
15061;SDS011;7630;50.306;8.566;2023-07-13T09:27:10;1.93;;;0.80;;
15061;SDS011;7630;50.306;8.566;2023-07-13T09:31:36;0.90;;;0.70;;
15061;SDS011;7630;50.306;8.566;2023-07-13T09:35:40;3.43;;;1.07;;
15061;SDS011;7630;50.306;8.566;2023-07-13T09:39:41;5.07;;;2.10;;
15061;SDS011;7630;50.306;8.566;2023-07-13T09:44:00;1.23;;;0.77;;
15061;SDS011;7630;50.306;8.566;2023-07-13T09:48:06;2.77;;;1.10;;
15061;SDS011;7630;50.306;8.566;2023-07-13T09:52:13;1.80;;;0.77;;
15061;SDS011;7630;50.306;8.566;2023-07-13T09:56:29;1.20;;;0.77;;
15061;SDS011;7630;50.306;8.566;2023-07-13T10:00:31;0.97;;;0.83;;
15061;SDS011;7630;50.306;8.566;2023-07-13T10:04:33;2.27;;;1.43;;
15061;SDS011;7630;50.306;8.566;2023-07-13T10:08:35;1.97;;;1.03;;
15061;SDS011;7630;50.306;8.566;2023-07-13T10:12:37;1.13;;;0.97;;
15061;SDS011;7630;50.306;8.566;2023-07-13T10:16:39;1.33;;;1.00;;
15061;SDS011;7630;50.306;8.566;2023-07-13T10:20:44;1.33;;;0.70;;
15061;SDS011;7630;50.306;8.566;2023-07-13T10:24:45;4.27;;;1.20;;
15061;SDS011;7630;50.306;8.566;2023-07-13T10:28:48;1.53;;;1.27;;
15061;SDS011;7630;50.306;8.566;2023-07-13T10:32:52;9.13;;;1.20;;
15061;SDS011;7630;50.306;8.566;2023-07-13T10:36:54;2.37;;;1.00;;
15061;SDS011;7630;50.306;8.566;2023-07-13T10:40:57;1.10;;;0.90;;
15061;SDS011;7630;50.306;8.566;2023-07-13T10:45:01;1.27;;;1.10;;
15061;SDS011;7630;50.306;8.566;2023-07-13T10:49:02;1.73;;;0.90;;
15061;SDS011;7630;50.306;8.566;2023-07-13T10:53:21;2.50;;;1.10;;
15061;SDS011;7630;50.306;8.566;2023-07-13T10:57:21;3.07;;;1.10;;
15061;SDS011;7630;50.306;8.566;2023-07-13T11:01:22;1.47;;;1.37;;
15061;SDS011;7630;50.306;8.566;2023-07-13T11:09:39;3.20;;;1.10;;
15061;SDS011;7630;50.306;8.566;2023-07-13T11:17:51;2.33;;;1.00;;
15061;SDS011;7630;50.306;8.566;2023-07-13T11:34:56;1.90;;;1.20;;
15061;SDS011;7630;50.306;8.566;2023-07-13T11:39:10;1.53;;;1.20;;
15061;SDS011;7630;50.306;8.566;2023-07-13T11:43:06;2.47;;;1.50;;
15061;SDS011;7630;50.306;8.566;2023-07-13T11:47:09;2.47;;;1.23;;
15061;SDS011;7630;50.306;8.566;2023-07-13T11:51:15;1.43;;;1.33;;
15061;SDS011;7630;50.306;8.566;2023-07-13T11:55:17;2.07;;;1.30;;
15061;SDS011;7630;50.306;8.566;2023-07-13T11:59:20;4.93;;;1.90;;
15061;SDS011;7630;50.306;8.566;2023-07-13T12:03:22;1.40;;;1.30;;
15061;SDS011;7630;50.306;8.566;2023-07-13T12:07:28;1.17;;;1.10;;
15061;SDS011;7630;50.306;8.566;2023-07-13T12:11:30;1.50;;;1.13;;
15061;SDS011;7630;50.306;8.566;2023-07-13T12:15:41;1.17;;;1.03;;
15061;SDS011;7630;50.306;8.566;2023-07-13T12:19:44;2.80;;;1.00;;
15061;SDS011;7630;50.306;8.566;2023-07-13T12:23:48;4.03;;;1.97;;
15061;SDS011;7630;50.306;8.566;2023-07-13T12:27:50;2.67;;;1.70;;
15061;SDS011;7630;50.306;8.566;2023-07-13T12:31:52;2.63;;;1.53;;
15061;SDS011;7630;50.306;8.566;2023-07-13T12:35:53;1.07;;;0.90;;
15061;SDS011;7630;50.306;8.566;2023-07-13T12:39:56;5.03;;;1.23;;
15061;SDS011;7630;50.306;8.566;2023-07-13T12:43:57;1.30;;;1.20;;
15061;SDS011;7630;50.306;8.566;2023-07-13T12:48:04;2.60;;;1.20;;
15061;SDS011;7630;50.306;8.566;2023-07-13T12:52:12;1.30;;;1.20;;
15061;SDS011;7630;50.306;8.566;2023-07-13T12:56:18;7.53;;;1.37;;
15061;SDS011;7630;50.306;8.566;2023-07-13T13:04:38;1.50;;;1.30;;
15061;SDS011;7630;50.306;8.566;2023-07-13T13:08:40;3.97;;;1.60;;
15061;SDS011;7630;50.306;8.566;2023-07-13T13:12:43;1.37;;;1.17;;
15061;SDS011;7630;50.306;8.566;2023-07-13T13:16:46;2.17;;;1.30;;
15061;SDS011;7630;50.306;8.566;2023-07-13T13:20:50;2.37;;;1.30;;
15061;SDS011;7630;50.306;8.566;2023-07-13T13:24:52;5.00;;;1.50;;
15061;SDS011;7630;50.306;8.566;2023-07-13T13:28:53;5.80;;;2.43;;
15061;SDS011;7630;50.306;8.566;2023-07-13T13:32:54;2.23;;;1.60;;
15061;SDS011;7630;50.306;8.566;2023-07-13T13:36:55;3.50;;;2.33;;
15061;SDS011;7630;50.306;8.566;2023-07-13T13:40:58;2.17;;;1.23;;
15061;SDS011;7630;50.306;8.566;2023-07-13T13:44:59;2.60;;;1.67;;
15061;SDS011;7630;50.306;8.566;2023-07-13T13:49:01;2.13;;;1.40;;
15061;SDS011;7630;50.306;8.566;2023-07-13T13:53:02;3.63;;;1.37;;
15061;SDS011;7630;50.306;8.566;2023-07-13T13:57:03;8.83;;;1.90;;
15061;SDS011;7630;50.306;8.566;2023-07-13T14:01:13;4.20;;;1.30;;
15061;SDS011;7630;50.306;8.566;2023-07-13T14:05:22;3.47;;;1.37;;
15061;SDS011;7630;50.306;8.566;2023-07-13T14:09:22;4.37;;;1.50;;
15061;SDS011;7630;50.306;8.566;2023-07-13T14:13:27;6.47;;;1.70;;
15061;SDS011;7630;50.306;8.566;2023-07-13T14:17:30;2.17;;;1.50;;
15061;SDS011;7630;50.306;8.566;2023-07-13T14:21:32;3.90;;;1.40;;
15061;SDS011;7630;50.306;8.566;2023-07-13T14:25:33;3.13;;;1.80;;
15061;SDS011;7630;50.306;8.566;2023-07-13T14:29:34;1.83;;;1.50;;
15061;SDS011;7630;50.306;8.566;2023-07-13T14:33:35;3.27;;;1.00;;
15061;SDS011;7630;50.306;8.566;2023-07-13T14:37:36;2.03;;;1.33;;
15061;SDS011;7630;50.306;8.566;2023-07-13T14:41:38;2.27;;;1.53;;
15061;SDS011;7630;50.306;8.566;2023-07-13T14:45:40;2.67;;;1.30;;
15061;SDS011;7630;50.306;8.566;2023-07-13T14:49:43;2.67;;;1.37;;
15061;SDS011;7630;50.306;8.566;2023-07-13T14:53:45;2.57;;;1.47;;
15061;SDS011;7630;50.306;8.566;2023-07-13T14:57:46;2.13;;;1.27;;
15061;SDS011;7630;50.306;8.566;2023-07-13T15:01:48;3.73;;;1.17;;
15061;SDS011;7630;50.306;8.566;2023-07-13T15:05:50;4.00;;;1.40;;
15061;SDS011;7630;50.306;8.566;2023-07-13T15:09:53;3.73;;;1.40;;
15061;SDS011;7630;50.306;8.566;2023-07-13T15:13:55;3.40;;;1.67;;
15061;SDS011;7630;50.306;8.566;2023-07-13T15:17:56;6.60;;;1.00;;
15061;SDS011;7630;50.306;8.566;2023-07-13T15:21:57;3.83;;;1.57;;
15061;SDS011;7630;50.306;8.566;2023-07-13T15:25:59;5.53;;;1.53;;
15061;SDS011;7630;50.306;8.566;2023-07-13T15:30:00;2.37;;;1.50;;
15061;SDS011;7630;50.306;8.566;2023-07-13T15:34:03;8.07;;;1.60;;
15061;SDS011;7630;50.306;8.566;2023-07-13T15:38:12;2.37;;;1.37;;
15061;SDS011;7630;50.306;8.566;2023-07-13T15:42:16;4.43;;;2.00;;
15061;SDS011;7630;50.306;8.566;2023-07-13T15:46:19;5.17;;;1.73;;
15061;SDS011;7630;50.306;8.566;2023-07-13T15:50:24;2.93;;;1.80;;
15061;SDS011;7630;50.306;8.566;2023-07-13T15:54:27;2.73;;;1.33;;
15061;SDS011;7630;50.306;8.566;2023-07-13T15:58:28;4.80;;;1.70;;
15061;SDS011;7630;50.306;8.566;2023-07-13T16:02:29;3.53;;;1.30;;
15061;SDS011;7630;50.306;8.566;2023-07-13T16:06:36;3.20;;;1.10;;
15061;SDS011;7630;50.306;8.566;2023-07-13T16:10:42;1.83;;;1.40;;
15061;SDS011;7630;50.306;8.566;2023-07-13T16:14:43;1.37;;;1.13;;
15061;SDS011;7630;50.306;8.566;2023-07-13T16:18:46;3.30;;;1.67;;
15061;SDS011;7630;50.306;8.566;2023-07-13T16:22:48;2.80;;;1.50;;
15061;SDS011;7630;50.306;8.566;2023-07-13T16:26:52;1.63;;;1.40;;
15061;SDS011;7630;50.306;8.566;2023-07-13T16:30:56;4.50;;;1.40;;
15061;SDS011;7630;50.306;8.566;2023-07-13T16:34:57;3.00;;;1.63;;
15061;SDS011;7630;50.306;8.566;2023-07-13T16:39:00;1.43;;;1.27;;
15061;SDS011;7630;50.306;8.566;2023-07-13T16:43:01;1.70;;;1.60;;
15061;SDS011;7630;50.306;8.566;2023-07-13T16:47:04;6.17;;;1.80;;
15061;SDS011;7630;50.306;8.566;2023-07-13T16:51:08;2.63;;;1.30;;
15061;SDS011;7630;50.306;8.566;2023-07-13T16:55:11;2.90;;;1.73;;
15061;SDS011;7630;50.306;8.566;2023-07-13T16:59:15;1.77;;;1.50;;
15061;SDS011;7630;50.306;8.566;2023-07-13T17:03:18;3.40;;;2.43;;
15061;SDS011;7630;50.306;8.566;2023-07-13T17:07:19;3.40;;;1.70;;
15061;SDS011;7630;50.306;8.566;2023-07-13T17:11:22;1.73;;;1.63;;
15061;SDS011;7630;50.306;8.566;2023-07-13T17:15:25;1.80;;;1.70;;
15061;SDS011;7630;50.306;8.566;2023-07-13T17:19:29;4.43;;;1.57;;
15061;SDS011;7630;50.306;8.566;2023-07-13T17:23:31;2.53;;;2.03;;
15061;SDS011;7630;50.306;8.566;2023-07-13T17:27:36;2.97;;;1.20;;
15061;SDS011;7630;50.306;8.566;2023-07-13T17:31:37;2.83;;;1.20;;
15061;SDS011;7630;50.306;8.566;2023-07-13T17:35:39;1.67;;;1.30;;
15061;SDS011;7630;50.306;8.566;2023-07-13T17:39:40;1.93;;;1.60;;
15061;SDS011;7630;50.306;8.566;2023-07-13T17:43:42;1.63;;;1.33;;
15061;SDS011;7630;50.306;8.566;2023-07-13T17:47:46;2.93;;;1.50;;
15061;SDS011;7630;50.306;8.566;2023-07-13T17:51:52;3.20;;;1.80;;
15061;SDS011;7630;50.306;8.566;2023-07-13T17:55:54;2.17;;;1.23;;
15061;SDS011;7630;50.306;8.566;2023-07-13T17:59:55;5.03;;;1.77;;
15061;SDS011;7630;50.306;8.566;2023-07-13T18:03:59;1.63;;;1.53;;
15061;SDS011;7630;50.306;8.566;2023-07-13T18:08:01;1.80;;;1.53;;
15061;SDS011;7630;50.306;8.566;2023-07-13T18:12:07;2.87;;;2.00;;
15061;SDS011;7630;50.306;8.566;2023-07-13T18:16:19;4.27;;;1.70;;
15061;SDS011;7630;50.306;8.566;2023-07-13T18:20:20;2.50;;;1.50;;
15061;SDS011;7630;50.306;8.566;2023-07-13T18:24:22;3.23;;;1.40;;
15061;SDS011;7630;50.306;8.566;2023-07-13T18:28:23;2.37;;;1.10;;
15061;SDS011;7630;50.306;8.566;2023-07-13T18:32:25;2.23;;;1.60;;
15061;SDS011;7630;50.306;8.566;2023-07-13T18:36:28;3.73;;;1.70;;
15061;SDS011;7630;50.306;8.566;2023-07-13T18:40:30;3.40;;;1.77;;
15061;SDS011;7630;50.306;8.566;2023-07-13T18:44:31;2.10;;;1.90;;
15061;SDS011;7630;50.306;8.566;2023-07-13T18:48:33;8.10;;;1.67;;
15061;SDS011;7630;50.306;8.566;2023-07-13T18:52:34;5.70;;;2.63;;
15061;SDS011;7630;50.306;8.566;2023-07-13T18:56:35;1.63;;;1.20;;
15061;SDS011;7630;50.306;8.566;2023-07-13T19:00:37;4.23;;;1.70;;
15061;SDS011;7630;50.306;8.566;2023-07-13T19:04:39;3.17;;;1.83;;
15061;SDS011;7630;50.306;8.566;2023-07-13T19:08:41;3.60;;;2.90;;
15061;SDS011;7630;50.306;8.566;2023-07-13T19:12:44;5.53;;;3.53;;
15061;SDS011;7630;50.306;8.566;2023-07-13T19:16:47;2.13;;;2.03;;
15061;SDS011;7630;50.306;8.566;2023-07-13T19:20:50;3.00;;;1.30;;
15061;SDS011;7630;50.306;8.566;2023-07-13T19:24:54;4.70;;;1.90;;
15061;SDS011;7630;50.306;8.566;2023-07-13T19:28:56;2.27;;;1.87;;
15061;SDS011;7630;50.306;8.566;2023-07-13T19:33:02;3.03;;;1.90;;
15061;SDS011;7630;50.306;8.566;2023-07-13T19:37:18;3.97;;;2.33;;
15061;SDS011;7630;50.306;8.566;2023-07-13T19:41:22;3.13;;;2.00;;
15061;SDS011;7630;50.306;8.566;2023-07-13T19:45:25;2.67;;;1.80;;
15061;SDS011;7630;50.306;8.566;2023-07-13T19:49:26;4.27;;;3.20;;
15061;SDS011;7630;50.306;8.566;2023-07-13T19:53:28;4.10;;;3.70;;
15061;SDS011;7630;50.306;8.566;2023-07-13T19:57:30;6.00;;;3.57;;
15061;SDS011;7630;50.306;8.566;2023-07-13T20:01:31;4.80;;;2.77;;
15061;SDS011;7630;50.306;8.566;2023-07-13T20:05:32;8.23;;;1.97;;
15061;SDS011;7630;50.306;8.566;2023-07-13T20:09:36;3.47;;;2.37;;
15061;SDS011;7630;50.306;8.566;2023-07-13T20:13:39;2.27;;;2.07;;
15061;SDS011;7630;50.306;8.566;2023-07-13T20:17:40;2.60;;;2.00;;
15061;SDS011;7630;50.306;8.566;2023-07-13T20:21:44;2.20;;;1.73;;
15061;SDS011;7630;50.306;8.566;2023-07-13T20:25:45;2.63;;;2.33;;
15061;SDS011;7630;50.306;8.566;2023-07-13T20:29:50;2.73;;;1.83;;
15061;SDS011;7630;50.306;8.566;2023-07-13T20:33:51;1.87;;;1.77;;
15061;SDS011;7630;50.306;8.566;2023-07-13T20:37:53;3.20;;;2.00;;
15061;SDS011;7630;50.306;8.566;2023-07-13T20:41:54;2.07;;;1.80;;
15061;SDS011;7630;50.306;8.566;2023-07-13T20:45:56;3.10;;;1.90;;
15061;SDS011;7630;50.306;8.566;2023-07-13T20:49:58;2.37;;;2.17;;
15061;SDS011;7630;50.306;8.566;2023-07-13T20:54:00;4.57;;;2.37;;
15061;SDS011;7630;50.306;8.566;2023-07-13T20:58:01;2.57;;;2.10;;
15061;SDS011;7630;50.306;8.566;2023-07-13T21:02:11;3.57;;;1.90;;
15061;SDS011;7630;50.306;8.566;2023-07-13T21:06:25;3.17;;;2.30;;
15061;SDS011;7630;50.306;8.566;2023-07-13T21:10:30;2.23;;;2.00;;
15061;SDS011;7630;50.306;8.566;2023-07-13T21:14:31;7.20;;;1.80;;
15061;SDS011;7630;50.306;8.566;2023-07-13T21:18:32;2.33;;;2.13;;
15061;SDS011;7630;50.306;8.566;2023-07-13T21:22:33;5.70;;;2.63;;
15061;SDS011;7630;50.306;8.566;2023-07-13T21:26:35;2.17;;;1.97;;
15061;SDS011;7630;50.306;8.566;2023-07-13T21:30:38;4.20;;;2.27;;
15061;SDS011;7630;50.306;8.566;2023-07-13T21:34:40;7.10;;;2.20;;
15061;SDS011;7630;50.306;8.566;2023-07-13T21:38:42;2.43;;;2.23;;
15061;SDS011;7630;50.306;8.566;2023-07-13T21:42:45;2.92;;;1.87;;
15061;SDS011;7630;50.306;8.566;2023-07-13T21:46:47;4.17;;;3.20;;
15061;SDS011;7630;50.306;8.566;2023-07-13T21:50:49;2.00;;;1.80;;
15061;SDS011;7630;50.306;8.566;2023-07-13T21:54:52;3.27;;;2.00;;
15061;SDS011;7630;50.306;8.566;2023-07-13T21:58:54;3.20;;;2.63;;
15061;SDS011;7630;50.306;8.566;2023-07-13T22:02:56;9.53;;;2.87;;
15061;SDS011;7630;50.306;8.566;2023-07-13T22:06:59;3.97;;;3.30;;
15061;SDS011;7630;50.306;8.566;2023-07-13T22:11:11;7.10;;;2.83;;
15061;SDS011;7630;50.306;8.566;2023-07-13T22:15:11;3.27;;;3.07;;
15061;SDS011;7630;50.306;8.566;2023-07-13T22:19:14;2.97;;;2.73;;
15061;SDS011;7630;50.306;8.566;2023-07-13T22:23:19;2.63;;;2.20;;
15061;SDS011;7630;50.306;8.566;2023-07-13T22:27:22;4.37;;;2.23;;
15061;SDS011;7630;50.306;8.566;2023-07-13T22:31:24;2.13;;;1.90;;
15061;SDS011;7630;50.306;8.566;2023-07-13T22:35:28;2.60;;;2.20;;
15061;SDS011;7630;50.306;8.566;2023-07-13T22:39:31;2.63;;;2.43;;
15061;SDS011;7630;50.306;8.566;2023-07-13T22:43:32;5.13;;;3.00;;
15061;SDS011;7630;50.306;8.566;2023-07-13T22:47:34;3.07;;;2.77;;
15061;SDS011;7630;50.306;8.566;2023-07-13T22:51:35;3.23;;;2.93;;
15061;SDS011;7630;50.306;8.566;2023-07-13T22:55:36;2.27;;;1.93;;
15061;SDS011;7630;50.306;8.566;2023-07-13T22:59:37;2.53;;;2.30;;
15061;SDS011;7630;50.306;8.566;2023-07-13T23:03:40;2.37;;;2.17;;
15061;SDS011;7630;50.306;8.566;2023-07-13T23:07:42;2.77;;;2.50;;
15061;SDS011;7630;50.306;8.566;2023-07-13T23:11:43;3.30;;;2.30;;
15061;SDS011;7630;50.306;8.566;2023-07-13T23:15:45;3.90;;;2.77;;
15061;SDS011;7630;50.306;8.566;2023-07-13T23:19:48;3.83;;;2.50;;
15061;SDS011;7630;50.306;8.566;2023-07-13T23:23:49;2.40;;;2.20;;
15061;SDS011;7630;50.306;8.566;2023-07-13T23:27:51;2.00;;;1.90;;
15061;SDS011;7630;50.306;8.566;2023-07-13T23:31:54;2.43;;;2.27;;
15061;SDS011;7630;50.306;8.566;2023-07-13T23:35:56;2.50;;;2.30;;
15061;SDS011;7630;50.306;8.566;2023-07-13T23:39:59;2.33;;;2.10;;
15061;SDS011;7630;50.306;8.566;2023-07-13T23:44:02;3.60;;;2.40;;
15061;SDS011;7630;50.306;8.566;2023-07-13T23:48:04;1.87;;;1.77;;
15061;SDS011;7630;50.306;8.566;2023-07-13T23:52:12;5.70;;;2.53;;
15061;SDS011;7630;50.306;8.566;2023-07-13T23:56:17;5.17;;;2.20;;
